Time;durP1;ratioP1;P1;durP2;ratioP2;P2;SDS_P1;SDS_P2;PMS_P1;PMS_P2;Temp;Humidity;BMP_temperature;BMP_pressure;BME280_temperature;BME280_humidity;BME280_pressure;Samples;Min_cycle;Max_cycle;Signal;HPM_P1;HPM_P2
2022/07/23 00:02:23;;;;;;;6.50;2.78;;;;;;;24.00;45.91;99398.91;5089863;28;20047;-69
2022/07/23 00:04:49;;;;;;;6.80;2.75;;;;;;;24.01;45.57;99400.59;5089887;28;20032;-70
2022/07/23 00:07:14;;;;;;;6.57;3.08;;;;;;;24.01;45.83;99408.69;5089855;28;20145;-69
2022/07/23 00:09:40;;;;;;;6.20;3.15;;;;;;;23.98;45.81;99404.56;5089823;28;20030;-70
2022/07/23 00:12:05;;;;;;;5.40;2.85;;;;;;;23.99;46.03;99399.97;5089678;28;20035;-69
2022/07/23 00:14:31;;;;;;;5.43;3.05;;;;;;;23.97;46.11;99397.50;5089758;28;20031;-70
2022/07/23 00:16:57;;;;;;;6.97;3.08;;;;;;;23.96;45.89;99397.69;5089579;28;20024;-69
2022/07/23 00:19:22;;;;;;;8.35;3.15;;;;;;;23.97;45.89;99396.66;5089572;28;20028;-70
2022/07/23 00:21:47;;;;;;;6.68;2.97;;;;;;;23.97;45.84;99399.38;5089479;28;20099;-70
2022/07/23 00:24:13;;;;;;;6.88;3.35;;;;;;;23.97;45.60;99396.66;5089539;28;20024;-69
2022/07/23 00:26:38;;;;;;;6.78;2.97;;;;;;;23.95;45.70;99396.00;5089317;28;20043;-70
2022/07/23 00:29:04;;;;;;;9.52;3.30;;;;;;;23.96;45.93;99405.78;5089458;28;20095;-69
2022/07/23 00:31:29;;;;;;;5.65;3.35;;;;;;;23.94;45.77;99405.97;5089026;28;20016;-70
2022/07/23 00:34:00;;;;;;;5.25;3.13;;;;;;;23.93;46.00;99405.16;5089227;28;20039;-69
2022/07/23 00:36:27;;;;;;;6.93;3.35;;;;;;;23.94;46.06;99400.56;5089265;28;20200;-69
2022/07/23 00:38:53;;;;;;;7.13;3.13;;;;;;;23.93;46.28;99401.63;5074897;28;20099;-69
2022/07/23 00:41:19;;;;;;;6.10;3.10;;;;;;;23.91;46.14;99401.00;5069139;28;20039;-69
2022/07/23 00:43:44;;;;;;;5.53;2.90;;;;;;;23.90;45.87;99402.88;5069031;28;20088;-69
2022/07/23 00:46:10;;;;;;;5.95;3.08;;;;;;;23.90;46.27;99402.88;5069087;28;20020;-69
2022/07/23 00:48:35;;;;;;;7.10;3.55;;;;;;;23.91;45.91;99409.09;5075789;28;20032;-69
2022/07/23 00:51:01;;;;;;;4.32;2.53;;;;;;;23.89;45.99;99403.09;5088985;28;20200;-70
2022/07/23 00:53:27;;;;;;;7.97;4.13;;;;;;;23.90;45.90;99402.03;5088810;28;20164;-70
2022/07/23 00:55:53;;;;;;;8.15;3.35;;;;;;;23.88;46.20;99398.72;5088859;28;20152;-70
2022/07/23 00:58:19;;;;;;;6.13;3.25;;;;;;;23.89;46.18;99405.81;5088919;28;20043;-70
2022/07/23 01:00:45;;;;;;;3.33;2.63;;;;;;;23.88;46.10;99409.53;5088768;28;20316;-70
2022/07/23 01:03:10;;;;;;;6.80;3.65;;;;;;;23.86;46.08;99407.03;5088681;28;20123;-70
2022/07/23 01:05:36;;;;;;;7.55;2.92;;;;;;;23.87;46.37;99416.00;5088713;28;20229;-69
2022/07/23 01:08:02;;;;;;;6.05;3.13;;;;;;;23.85;46.35;99416.19;5088447;28;20067;-69
2022/07/23 01:10:33;;;;;;;8.10;3.47;;;;;;;23.86;46.52;99414.31;5088572;28;20196;-69
2022/07/23 01:13:07;;;;;;;5.25;2.72;;;;;;;23.84;46.05;99402.91;5088422;28;20016;-70
2022/07/23 01:15:37;;;;;;;5.63;3.70;;;;;;;23.84;46.33;99409.13;5088524;28;20016;-70
2022/07/23 01:18:04;;;;;;;7.13;2.92;;;;;;;23.84;46.21;99413.69;5068249;28;20024;-69
2022/07/23 01:20:31;;;;;;;6.05;3.13;;;;;;;23.84;46.64;99414.50;5068253;28;20179;-69
2022/07/23 01:22:57;;;;;;;5.80;3.15;;;;;;;23.83;46.26;99412.84;5068276;28;20055;-70
2022/07/23 01:25:23;;;;;;;5.47;3.25;;;;;;;23.82;46.35;99404.97;5050781;28;20187;-69
2022/07/23 01:27:48;;;;;;;9.32;3.40;;;;;;;23.83;46.16;99412.03;5068310;28;20012;-70
2022/07/23 01:30:14;;;;;;;9.07;3.22;;;;;;;23.83;46.42;99412.03;5068224;28;20078;-70
2022/07/23 01:32:40;;;;;;;5.22;2.80;;;;;;;23.82;46.45;99411.22;5068113;28;20025;-70
2022/07/23 01:35:07;;;;;;;7.25;3.13;;;;;;;23.83;46.33;99412.03;5068131;28;20099;-70
2022/07/23 01:37:32;;;;;;;5.97;2.88;;;;;;;23.82;46.27;99404.97;5067999;28;20025;-70
2022/07/23 01:39:58;;;;;;;5.68;2.97;;;;;;;23.81;46.65;99403.31;5067981;28;20082;-70
2022/07/23 01:42:24;;;;;;;5.22;3.58;;;;;;;23.78;46.37;99404.56;5067794;28;20290;-70
2022/07/23 01:44:50;;;;;;;6.65;3.08;;;;;;;23.79;46.72;99400.84;5067179;28;20025;-70
2022/07/23 01:47:16;;;;;;;6.13;3.28;;;;;;;23.80;46.69;99401.66;5067830;28;20032;-70
2022/07/23 01:49:41;;;;;;;4.28;2.55;;;;;;;23.78;46.51;99410.78;5083786;28;20016;-70
2022/07/23 01:52:10;;;;;;;5.03;2.72;;;;;;;23.80;46.80;99409.75;5070313;28;20081;-69
2022/07/23 01:54:37;;;;;;;6.13;3.13;;;;;;;23.79;46.48;99408.94;5087890;28;20089;-70
2022/07/23 01:57:03;;;;;;;6.43;3.47;;;;;;;23.78;46.64;99407.28;5087795;28;20028;-70
2022/07/23 01:59:29;;;;;;;7.88;3.28;;;;;;;23.77;46.81;99411.84;5087672;28;20023;-69
2022/07/23 02:01:55;;;;;;;7.38;3.55;;;;;;;23.76;46.86;99402.06;5087679;28;20234;-70
2022/07/23 02:04:21;;;;;;;6.35;2.95;;;;;;;23.76;46.71;99404.75;5087749;28;20038;-69
2022/07/23 02:06:47;;;;;;;5.38;3.00;;;;;;;23.78;46.68;99408.09;5087506;28;20246;-69
2022/07/23 02:09:13;;;;;;;4.88;3.13;;;;;;;23.78;46.66;99404.56;5087715;28;20039;-69
2022/07/23 02:11:38;;;;;;;4.50;2.92;;;;;;;23.78;46.85;99405.38;5087883;28;20021;-70
2022/07/23 02:14:04;;;;;;;5.18;2.67;;;;;;;23.77;46.98;99392.91;5087680;28;20289;-70
2022/07/23 02:16:29;;;;;;;7.53;3.05;;;;;;;23.78;46.55;99397.28;5087396;28;20021;-69
2022/07/23 02:18:55;;;;;;;7.97;3.75;;;;;;;23.77;46.98;99395.63;5087427;28;20091;-71
2022/07/23 02:21:20;;;;;;;9.00;3.35;;;;;;;23.80;46.54;99397.09;5087546;28;20043;-71
2022/07/23 02:23:46;;;;;;;11.23;3.13;;;;;;;23.79;46.83;99398.13;5087447;28;20028;-70
2022/07/23 02:26:11;;;;;;;3.70;2.55;;;;;;;23.78;46.92;99402.69;5087515;28;20017;-70
2022/07/23 02:28:37;;;;;;;4.22;2.65;;;;;;;23.80;46.89;99401.66;5087416;28;20031;-70
2022/07/23 02:31:03;;;;;;;5.38;2.92;;;;;;;23.80;46.87;99404.34;5087487;28;20020;-71
2022/07/23 02:33:29;;;;;;;9.40;2.88;;;;;;;23.78;47.00;99408.09;5087615;28;20092;-71
2022/07/23 02:35:54;;;;;;;5.47;3.00;;;;;;;23.81;46.73;99408.72;5087420;28;20031;-70
2022/07/23 02:38:20;;;;;;;6.13;3.38;;;;;;;23.81;46.73;99401.47;5087097;28;20130;-70
2022/07/23 02:40:45;;;;;;;7.70;3.20;;;;;;;23.83;46.72;99412.03;5087356;28;20036;-71
2022/07/23 02:43:11;;;;;;;7.20;3.83;;;;;;;23.84;46.67;99405.59;5087280;28;20024;-71
2022/07/23 02:45:36;;;;;;;9.25;3.20;;;;;;;23.84;46.77;99398.31;5087345;28;20020;-70
2022/07/23 02:48:02;;;;;;;7.15;3.08;;;;;;;23.85;47.03;99404.56;5087083;28;20237;-71
2022/07/23 02:50:27;;;;;;;5.72;3.45;;;;;;;23.87;46.86;99403.28;5087293;28;20039;-70
2022/07/23 02:52:53;;;;;;;4.40;3.05;;;;;;;23.88;46.95;99412.25;5087181;28;20043;-70
2022/07/23 02:55:18;;;;;;;7.72;3.38;;;;;;;23.87;46.82;99407.88;5089044;28;20024;-71
2022/07/23 02:57:44;;;;;;;4.38;3.15;;;;;;;23.90;46.47;99407.44;5091139;28;20294;-71
2022/07/23 03:00:09;;;;;;;6.47;3.53;;;;;;;23.89;46.58;99413.91;5091057;28;20025;-71
2022/07/23 03:02:35;;;;;;;5.13;2.85;;;;;;;23.91;46.90;99415.34;5091050;28;20237;-71
2022/07/23 03:05:01;;;;;;;4.95;3.25;;;;;;;23.92;46.81;99413.47;5091058;28;20020;-71
2022/07/23 03:07:26;;;;;;;4.93;3.17;;;;;;;23.93;46.61;99418.66;5090896;28;20036;-70
2022/07/23 03:09:52;;;;;;;7.97;3.22;;;;;;;23.95;46.83;99421.16;5090904;28;20129;-71
2022/07/23 03:12:17;;;;;;;5.38;3.45;;;;;;;23.95;46.90;99426.56;5090822;28;20090;-70
2022/07/23 03:14:43;;;;;;;5.75;3.33;;;;;;;23.96;46.80;99416.59;5090830;28;20032;-71
2022/07/23 03:17:09;;;;;;;14.73;3.75;;;;;;;23.97;46.72;99421.00;5090706;28;20083;-71
2022/07/23 03:19:34;;;;;;;6.63;3.75;;;;;;;23.99;46.69;99419.72;5090693;28;20031;-72
2022/07/23 03:22:00;;;;;;;6.53;3.33;;;;;;;24.04;46.72;99419.91;5090626;28;20036;-71
2022/07/23 03:24:53;;;;;;;9.65;3.65;;;;;;;24.17;46.29;99415.53;5090677;28;20044;-72
2022/07/23 03:27:11;;;;;;;12.68;4.25;;;;;;;24.33;46.41;99416.91;5090270;28;20040;-71
2022/07/23 03:29:36;;;;;;;9.80;4.38;;;;;;;24.53;45.77;99430.34;5090552;28;20020;-72
2022/07/23 03:32:03;;;;;;;7.50;3.65;;;;;;;24.64;45.61;99429.66;5090478;28;20141;-72
2022/07/23 03:34:29;;;;;;;7.15;3.75;;;;;;;24.65;45.80;99425.91;5090758;28;20020;-71
2022/07/23 03:36:54;;;;;;;8.93;3.97;;;;;;;24.68;46.07;99427.38;5090406;28;20047;-71
2022/07/23 03:39:20;;;;;;;6.78;3.80;;;;;;;24.71;46.21;99426.94;5072629;28;20028;-71
2022/07/23 03:41:45;;;;;;;11.77;3.90;;;;;;;24.75;46.04;99421.94;5070226;28;20127;-71
2022/07/23 03:44:10;;;;;;;6.78;3.60;;;;;;;24.78;46.13;99425.03;5070247;28;20036;-71
2022/07/23 03:46:36;;;;;;;7.30;4.32;;;;;;;24.82;45.59;99420.00;5070115;28;20025;-71
2022/07/23 03:49:02;;;;;;;9.65;4.68;;;;;;;24.83;45.67;99416.25;5080632;28;20226;-71
2022/07/23 03:51:27;;;;;;;11.02;4.53;;;;;;;24.84;45.71;99415.22;5090170;28;20024;-72
2022/07/23 03:53:54;;;;;;;9.10;3.55;;;;;;;24.87;45.90;99424.78;5090365;28;20145;-72
2022/07/23 03:56:20;;;;;;;9.30;4.03;;;;;;;24.87;45.88;99420.19;5090356;28;20125;-71
2022/07/23 03:58:45;;;;;;;6.72;3.63;;;;;;;24.89;45.74;99422.69;5089883;28;20039;-70
2022/07/23 04:01:11;;;;;;;9.07;3.70;;;;;;;24.89;45.49;99420.81;5089938;28;20028;-70
2022/07/23 04:03:37;;;;;;;9.05;4.18;;;;;;;24.91;45.92;99417.88;5089885;28;20083;-71
2022/07/23 04:06:03;;;;;;;10.20;4.15;;;;;;;24.93;45.56;99422.03;5088894;28;20025;-71
2022/07/23 04:08:28;;;;;;;10.20;4.60;;;;;;;24.94;45.72;99418.28;5089604;28;20013;-72
2022/07/23 04:10:53;;;;;;;6.93;4.05;;;;;;;24.95;45.65;99425.34;5089850;28;20039;-72
2022/07/23 04:13:19;;;;;;;9.23;4.47;;;;;;;24.94;45.73;99422.88;5089725;28;20066;-70
2022/07/23 04:15:44;;;;;;;7.78;4.45;;;;;;;24.93;45.87;99427.44;5089832;28;20106;-71
2022/07/23 04:18:10;;;;;;;9.30;4.25;;;;;;;24.92;45.91;99420.38;5089602;28;20233;-71
2022/07/23 04:20:36;;;;;;;11.75;4.68;;;;;;;24.92;45.96;99428.50;5089799;28;20012;-70
2022/07/23 04:23:01;;;;;;;11.15;4.53;;;;;;;24.93;45.83;99423.91;5089512;28;20036;-71
2022/07/23 04:25:27;;;;;;;12.90;5.00;;;;;;;24.99;45.83;99425.75;5089511;28;20044;-71
2022/07/23 04:27:52;;;;;;;13.75;4.18;;;;;;;25.02;45.67;99422.59;5089317;28;20189;-72
2022/07/23 04:30:18;;;;;;;7.15;4.00;;;;;;;25.07;45.47;99432.78;5089445;28;20016;-72
2022/07/23 04:32:43;;;;;;;6.50;4.32;;;;;;;25.15;45.45;99432.50;5089488;28;20029;-71
2022/07/23 04:35:09;;;;;;;8.02;3.90;;;;;;;25.28;45.22;99429.69;5089283;28;20084;-73
2022/07/23 04:37:34;;;;;;;6.80;4.47;;;;;;;25.46;44.90;99425.44;5089189;28;20028;-73
2022/07/23 04:40:00;;;;;;;9.40;3.80;;;;;;;25.68;44.26;99433.13;5089159;28;20058;-72
2022/07/23 04:42:25;;;;;;;9.65;4.63;;;;;;;25.90;43.90;99425.41;5089102;28;20268;-72
2022/07/23 04:44:51;;;;;;;7.38;3.70;;;;;;;26.14;43.50;99431.03;5089135;28;20092;-71
2022/07/23 04:47:16;;;;;;;7.55;4.22;;;;;;;26.28;43.35;99421.69;5089056;28;20092;-72
2022/07/23 04:49:42;;;;;;;9.45;4.05;;;;;;;26.46;42.88;99428.97;5088908;28;20233;-73
2022/07/23 04:52:07;;;;;;;9.32;4.28;;;;;;;26.68;42.42;99414.09;5088940;28;20221;-72
2022/07/23 04:54:33;;;;;;;7.32;3.42;;;;;;;26.83;42.21;99416.44;5088896;28;20025;-72
2022/07/23 04:56:58;;;;;;;5.85;3.47;;;;;;;26.97;41.85;99415.16;5088805;28;20021;-72
2022/07/23 04:59:24;;;;;;;5.68;3.97;;;;;;;27.05;42.12;99409.38;5088732;28;20039;-72
2022/07/23 05:01:49;;;;;;;5.65;3.90;;;;;;;27.22;41.72;99408.72;5071183;28;20040;-72
2022/07/23 05:04:15;;;;;;;5.47;4.10;;;;;;;27.28;41.26;99410.47;5088777;28;20028;-71
2022/07/23 05:06:40;;;;;;;5.03;3.50;;;;;;;27.38;41.12;99408.03;5088525;28;20099;-71
2022/07/23 05:09:05;;;;;;;6.10;3.50;;;;;;;27.46;41.15;99397.88;5088664;28;20012;-71
2022/07/23 05:11:31;;;;;;;6.00;3.40;;;;;;;27.53;40.72;99399.44;5088585;28;20097;-71
2022/07/23 05:13:56;;;;;;;9.48;3.60;;;;;;;27.58;40.85;99398.72;5088459;28;20024;-72
2022/07/23 05:16:22;;;;;;;5.05;3.20;;;;;;;27.61;40.90;99400.97;5083595;28;20285;-72
2022/07/23 05:18:47;;;;;;;5.03;3.45;;;;;;;27.63;40.50;99395.31;5068114;28;20017;-72
2022/07/23 05:21:13;;;;;;;4.65;3.70;;;;;;;27.74;40.60;99405.34;5068411;28;20238;-71
2022/07/23 05:23:38;;;;;;;4.97;3.60;;;;;;;27.75;40.28;99406.16;5068326;28;20138;-71
2022/07/23 05:26:04;;;;;;;5.28;3.90;;;;;;;27.78;40.72;99401.09;5068329;28;20052;-71
2022/07/23 05:28:29;;;;;;;7.25;4.07;;;;;;;27.85;40.24;99406.41;5068187;28;20032;-71
2022/07/23 05:30:55;;;;;;;6.35;4.15;;;;;;;27.86;40.51;99408.06;5068226;28;20135;-71
2022/07/23 05:33:20;;;;;;;5.15;3.58;;;;;;;27.83;40.17;99409.34;5068130;28;20098;-72
2022/07/23 05:35:47;;;;;;;5.85;3.97;;;;;;;27.83;40.22;99405.81;5068087;28;20017;-72
2022/07/23 05:38:12;;;;;;;6.22;3.90;;;;;;;27.86;40.42;99413.50;5077116;28;20093;-72
2022/07/23 05:40:38;;;;;;;8.20;4.00;;;;;;;27.86;40.11;99414.31;5088018;28;20020;-73
2022/07/23 05:43:03;;;;;;;6.22;4.03;;;;;;;27.82;40.33;99415.03;5088014;28;20066;-71
2022/07/23 05:45:28;;;;;;;8.73;4.15;;;;;;;27.81;40.73;99406.03;5070452;28;20048;-72
2022/07/23 05:47:54;;;;;;;5.93;3.75;;;;;;;27.98;39.97;99406.16;5087728;28;20017;-72
2022/07/23 05:50:20;;;;;;;6.65;4.20;;;;;;;28.07;40.05;99403.03;5087932;28;20241;-71
2022/07/23 05:52:45;;;;;;;5.72;3.92;;;;;;;28.04;39.97;99404.34;5087820;28;20043;-72
2022/07/23 05:55:12;;;;;;;7.63;3.60;;;;;;;28.01;39.66;99393.94;5087800;28;20156;-72
2022/07/23 05:57:38;;;;;;;6.60;4.13;;;;;;;28.08;39.71;99404.69;5087779;28;20355;-71
2022/07/23 06:00:06;;;;;;;5.18;3.58;;;;;;;28.07;39.69;99397.59;5087785;28;20020;-72
2022/07/23 06:02:31;;;;;;;9.50;4.32;;;;;;;28.01;40.02;99397.47;5070039;28;20145;-73
2022/07/23 06:04:57;;;;;;;5.10;4.10;;;;;;;27.97;40.32;99399.06;5087723;28;20029;-73
2022/07/23 06:07:22;;;;;;;5.82;4.15;;;;;;;28.06;40.15;99398.66;5087458;28;20111;-72
2022/07/23 06:09:49;;;;;;;12.65;4.03;;;;;;;28.07;39.94;99397.59;5087587;28;20032;-71
2022/07/23 06:12:15;;;;;;;5.82;4.15;;;;;;;28.03;39.98;99398.06;5088119;28;20152;-73
2022/07/23 06:14:40;;;;;;;7.53;4.47;;;;;;;27.94;40.05;99401.44;5087649;28;20030;-72
2022/07/23 06:17:06;;;;;;;5.60;3.90;;;;;;;27.92;40.01;99407.09;5087560;28;20048;-71
2022/07/23 06:19:31;;;;;;;5.90;4.38;;;;;;;27.81;40.53;99400.59;5087515;28;20017;-72
2022/07/23 06:21:57;;;;;;;11.07;4.38;;;;;;;27.64;40.70;99397.78;5087479;28;20024;-73
2022/07/23 06:24:22;;;;;;;7.70;4.43;;;;;;;27.48;40.75;99396.63;5069800;28;20115;-72
2022/07/23 06:26:48;;;;;;;7.03;4.68;;;;;;;27.31;41.46;99392.91;5069441;28;20024;-72
2022/07/23 06:29:13;;;;;;;6.40;4.25;;;;;;;27.13;41.53;99391.94;5088508;28;20087;-72
2022/07/23 06:31:39;;;;;;;7.72;4.45;;;;;;;27.03;41.72;99388.97;5094031;28;20241;-73
2022/07/23 06:34:04;;;;;;;5.85;4.20;;;;;;;26.91;42.13;99387.03;5094070;28;20022;-72
2022/07/23 06:36:30;;;;;;;6.90;4.85;;;;;;;26.87;42.14;99383.16;5093948;28;20229;-72
2022/07/23 06:38:55;;;;;;;13.93;5.38;;;;;;;26.94;42.65;99383.03;5093735;28;20016;-72
2022/07/23 06:41:22;;;;;;;8.55;4.85;;;;;;;27.01;42.19;99385.66;5093964;28;20095;-73
2022/07/23 06:43:48;;;;;;;7.05;5.15;;;;;;;27.00;42.38;99379.38;5093855;28;20020;-72
2022/07/23 06:46:13;;;;;;;11.10;4.38;;;;;;;27.06;42.25;99386.59;5093924;28;20020;-70
2022/07/23 06:48:39;;;;;;;5.72;4.32;;;;;;;27.06;42.18;99383.88;5086298;28;20076;-71
2022/07/23 06:51:04;;;;;;;9.13;4.55;;;;;;;26.99;42.17;99382.34;5073824;28;20331;-72
2022/07/23 06:53:30;;;;;;;8.38;5.05;;;;;;;26.87;42.45;99379.59;5073818;28;20025;-70
2022/07/23 06:55:55;;;;;;;6.10;4.25;;;;;;;26.88;42.48;99376.66;5073797;28;20025;-71
2022/07/23 06:58:21;;;;;;;7.05;4.60;;;;;;;26.92;42.40;99379.72;5073674;28;20032;-70
2022/07/23 07:00:47;;;;;;;7.97;4.70;;;;;;;26.87;42.39;99382.31;5073791;28;20028;-70
2022/07/23 07:03:12;;;;;;;6.22;4.50;;;;;;;26.86;42.25;99381.50;5073713;28;20032;-70
2022/07/23 07:05:39;;;;;;;5.82;4.72;;;;;;;26.80;42.38;99377.81;5073776;28;20035;-72
2022/07/23 07:08:05;;;;;;;7.32;4.07;;;;;;;26.84;42.30;99375.47;5073641;28;20112;-72
2022/07/23 07:10:31;;;;;;;8.38;5.07;;;;;;;26.75;42.33;99374.94;5073772;28;20025;-71
2022/07/23 07:12:56;;;;;;;5.40;4.50;;;;;;;26.80;42.31;99380.53;5073611;28;20051;-72
2022/07/23 07:15:22;;;;;;;6.20;4.50;;;;;;;26.81;42.30;99378.63;5073954;28;20025;-72
2022/07/23 07:17:48;;;;;;;7.30;4.95;;;;;;;26.82;42.09;99387.63;5090550;28;20047;-71
2022/07/23 07:20:13;;;;;;;11.52;5.00;;;;;;;26.77;42.20;99378.25;5093662;28;20016;-72
2022/07/23 07:22:39;;;;;;;5.30;4.20;;;;;;;26.69;42.36;99375.84;5093654;28;20028;-73
2022/07/23 07:25:06;;;;;;;9.30;5.75;;;;;;;26.63;42.58;99376.78;5093645;28;20218;-71
2022/07/23 07:27:31;;;;;;;6.13;5.03;;;;;;;26.59;42.57;99379.16;5083837;28;20067;-71
2022/07/23 07:29:57;;;;;;;7.68;5.20;;;;;;;26.68;42.11;99382.38;5073576;28;20088;-72
2022/07/23 07:32:22;;;;;;;10.10;4.68;;;;;;;26.68;42.19;99379.66;5073447;28;20226;-71
2022/07/23 07:34:48;;;;;;;6.38;4.72;;;;;;;26.68;42.18;99376.09;5073419;28;20053;-73
2022/07/23 07:37:13;;;;;;;7.90;5.30;;;;;;;26.80;42.12;99382.41;5073398;28;20032;-73
2022/07/23 07:39:39;;;;;;;5.30;4.45;;;;;;;26.89;41.78;99381.03;5073383;28;20025;-71
2022/07/23 07:42:04;;;;;;;7.82;4.55;;;;;;;26.94;41.51;99381.16;5070890;28;20048;-72
2022/07/23 07:44:30;;;;;;;7.10;5.13;;;;;;;26.87;41.77;99380.44;5070301;28;20029;-72
2022/07/23 07:46:55;;;;;;;9.18;5.32;;;;;;;26.85;41.78;99384.41;5069998;28;20096;-70
2022/07/23 07:49:21;;;;;;;7.70;4.55;;;;;;;26.97;41.68;99382.59;5083296;28;20129;-72
2022/07/23 07:51:47;;;;;;;7.20;4.68;;;;;;;26.97;41.79;99382.59;5090113;28;20020;-72
2022/07/23 07:54:12;;;;;;;6.63;5.40;;;;;;;26.93;41.55;99384.09;5090089;28;20044;-72
2022/07/23 07:56:38;;;;;;;5.93;5.25;;;;;;;26.86;41.49;99383.38;5090040;28;20031;-70
2022/07/23 07:59:04;;;;;;;5.28;4.53;;;;;;;26.82;41.55;99379.47;5089979;28;20043;-71
2022/07/23 08:01:29;;;;;;;7.70;4.82;;;;;;;26.75;41.77;99384.97;5090055;28;20047;-71
2022/07/23 08:03:55;;;;;;;7.15;4.47;;;;;;;26.77;41.74;99380.13;5089960;28;20028;-71
2022/07/23 08:06:20;;;;;;;7.38;4.53;;;;;;;26.72;42.19;99383.53;5089739;28;20036;-72
2022/07/23 08:08:45;;;;;;;5.53;4.50;;;;;;;26.69;41.87;99386.69;5089797;28;20031;-71
2022/07/23 08:11:11;;;;;;;6.78;4.53;;;;;;;26.64;42.04;99389.31;5089704;28;20279;-71
2022/07/23 08:13:36;;;;;;;5.30;4.25;;;;;;;26.61;42.04;99387.03;5089594;28;20021;-71
2022/07/23 08:16:02;;;;;;;6.50;5.05;;;;;;;26.57;42.23;99374.97;5089146;28;20035;-72
2022/07/23 08:18:28;;;;;;;7.68;5.38;;;;;;;26.54;42.18;99381.72;5069454;28;20021;-70
2022/07/23 08:20:53;;;;;;;9.93;4.78;;;;;;;26.53;42.08;99379.25;5069479;28;20025;-71
2022/07/23 08:23:19;;;;;;;9.30;5.10;;;;;;;26.71;42.03;99381.06;5069323;28;20020;-73
2022/07/23 08:25:46;;;;;;;5.90;4.90;;;;;;;26.82;41.58;99376.78;5069632;28;20012;-72
2022/07/23 08:28:13;;;;;;;7.80;4.93;;;;;;;26.81;41.72;99378.63;5069276;28;20043;-71
2022/07/23 08:30:39;;;;;;;6.13;4.95;;;;;;;26.76;41.66;99375.78;5069408;28;20017;-71
2022/07/23 08:33:10;;;;;;;6.72;5.10;;;;;;;26.71;41.85;99379.16;5069538;28;20036;-71
2022/07/23 08:35:56;;;;;;;7.00;4.50;;;;;;;26.74;41.92;99377.91;5069250;28;20013;-71
2022/07/23 08:38:22;;;;;;;5.93;4.45;;;;;;;26.67;42.08;99369.84;5079712;28;20028;-73
2022/07/23 08:40:51;;;;;;;5.88;4.80;;;;;;;26.59;42.13;99364.72;5089174;28;20127;-72
2022/07/23 08:43:23;;;;;;;6.10;4.75;;;;;;;26.55;42.15;99367.09;5089103;28;20271;-70
2022/07/23 08:45:50;;;;;;;8.80;5.00;;;;;;;26.63;42.05;99368.66;5089127;28;20091;-72
2022/07/23 08:48:18;;;;;;;7.93;6.22;;;;;;;26.64;42.01;99364.88;5088793;28;20086;-71
2022/07/23 08:50:48;;;;;;;6.28;4.97;;;;;;;26.64;41.99;99360.25;5089057;28;20062;-72
2022/07/23 08:53:16;;;;;;;10.10;5.45;;;;;;;26.61;42.04;99365.34;5088400;28;20035;-71
2022/07/23 08:55:46;;;;;;;6.13;5.35;;;;;;;26.57;42.04;99356.00;5088923;28;20078;-72
2022/07/23 08:58:12;;;;;;;8.02;5.22;;;;;;;26.56;42.02;99365.19;5088871;28;20025;-72
2022/07/23 09:00:37;;;;;;;9.90;5.47;;;;;;;26.52;42.24;99356.69;5088725;28;20027;-72
2022/07/23 09:03:03;;;;;;;8.13;5.60;;;;;;;26.47;42.41;99357.38;5088666;28;20099;-71
2022/07/23 09:05:29;;;;;;;6.25;5.63;;;;;;;26.45;42.15;99366.81;5088635;28;20082;-71
2022/07/23 09:08:23;;;;;;;7.18;5.18;;;;;;;26.42;42.25;99368.09;5088263;28;20104;-71
2022/07/23 09:10:58;;;;;;;8.15;5.95;;;;;;;26.37;42.50;99358.97;5088535;28;20024;-72
2022/07/23 09:13:46;;;;;;;7.80;5.47;;;;;;;26.33;42.63;99356.72;5088414;28;20020;-71
2022/07/23 09:16:14;;;;;;;8.02;5.30;;;;;;;26.28;42.50;99363.91;5088447;28;20031;-71
2022/07/23 09:18:39;;;;;;;6.85;5.30;;;;;;;26.29;42.58;99354.72;5088247;28;20028;-72
2022/07/23 09:21:10;;;;;;;7.95;5.40;;;;;;;26.30;42.49;99357.22;5088329;28;20043;-71
2022/07/23 09:23:46;;;;;;;6.55;4.70;;;;;;;26.28;42.59;99347.63;5088171;28;20040;-72
2022/07/23 09:26:33;;;;;;;6.60;5.05;;;;;;;26.24;42.61;99360.81;5088256;28;20138;-73
2022/07/23 09:29:25;;;;;;;8.77;5.82;;;;;;;26.24;42.63;99355.41;5068187;28;20025;-73
2022/07/23 09:31:56;;;;;;;5.60;4.97;;;;;;;26.24;42.80;99354.59;5068108;28;20241;-71
2022/07/23 09:34:27;;;;;;;12.27;6.50;;;;;;;26.25;42.71;99358.94;5068125;28;20094;-70
2022/07/23 09:36:58;;;;;;;6.60;5.10;;;;;;;26.24;42.69;99360.81;5068124;28;20029;-70
2022/07/23 09:39:31;;;;;;;9.07;5.72;;;;;;;26.25;42.66;99359.75;5086861;28;20036;-71
2022/07/23 09:41:59;;;;;;;6.78;5.60;;;;;;;26.24;42.61;99347.25;5088008;28;20151;-71
2022/07/23 09:44:25;;;;;;;6.90;6.10;;;;;;;26.24;42.72;99341.03;5087977;28;20041;-71
2022/07/23 09:46:59;;;;;;;7.25;5.25;;;;;;;26.25;42.64;99337.25;5087910;28;20039;-70
2022/07/23 09:49:25;;;;;;;7.15;5.82;;;;;;;26.26;42.60;99333.47;5087869;28;20031;-70
2022/07/23 09:51:52;;;;;;;5.95;5.35;;;;;;;26.27;42.50;99333.25;5087902;28;20044;-70
2022/07/23 09:54:24;;;;;;;8.30;6.10;;;;;;;26.31;42.47;99328.19;5087912;28;20024;-70
2022/07/23 09:56:50;;;;;;;9.05;5.55;;;;;;;26.46;42.17;99335.94;5088061;28;20020;-70
2022/07/23 09:59:17;;;;;;;6.55;5.13;;;;;;;26.45;42.04;99328.84;5087691;28;20133;-70
2022/07/23 10:01:44;;;;;;;9.43;5.32;;;;;;;26.41;42.19;99333.06;5087496;28;20245;-70
2022/07/23 10:04:11;;;;;;;11.15;6.05;;;;;;;26.41;42.07;99328.44;5086705;28;20070;-69
2022/07/23 10:06:40;;;;;;;7.00;5.78;;;;;;;26.43;42.04;99326.34;5087504;28;20021;-72
2022/07/23 10:09:07;;;;;;;8.68;6.45;;;;;;;26.45;41.96;99328.84;5087691;28;20024;-69
2022/07/23 10:11:33;;;;;;;12.80;7.78;;;;;;;26.44;42.17;99333.44;5087610;28;20024;-72
2022/07/23 10:14:01;;;;;;;11.23;7.65;;;;;;;26.42;42.21;99321.16;5087582;28;20221;-70
2022/07/23 10:16:26;;;;;;;11.63;5.93;;;;;;;26.42;41.62;99332.00;5087485;28;20016;-69
2022/07/23 10:18:52;;;;;;;9.98;6.80;;;;;;;26.59;41.62;99322.16;5087461;28;20062;-69
2022/07/23 10:21:46;;;;;;;11.15;7.13;;;;;;;26.71;41.34;99318.66;5087563;28;20028;-69
2022/07/23 10:24:24;;;;;;;10.13;5.68;;;;;;;26.68;41.49;99321.81;5087026;28;20024;-70
2022/07/23 10:27:09;;;;;;;7.82;6.38;;;;;;;26.60;41.53;99320.25;5083273;28;20044;-71
2022/07/23 10:30:11;;;;;;;10.65;6.43;;;;;;;26.54;41.58;99313.06;5067378;28;20032;-70
2022/07/23 10:32:49;;;;;;;8.10;6.85;;;;;;;26.52;41.74;99312.47;5067051;28;20167;-70
2022/07/23 10:35:57;;;;;;;9.32;6.60;;;;;;;26.72;41.00;99307.53;5067306;28;20092;-70
2022/07/23 10:38:29;;;;;;;7.60;6.43;;;;;;;26.83;40.86;99313.28;5056657;28;20146;-70
2022/07/23 10:41:03;;;;;;;8.35;6.03;;;;;;;26.82;40.83;99306.19;5067352;28;20063;-70
2022/07/23 10:43:30;;;;;;;11.00;6.20;;;;;;;26.93;40.70;99302.66;5067205;28;20043;-71
2022/07/23 10:46:16;;;;;;;6.60;5.90;;;;;;;26.90;40.90;99301.25;5067244;28;20100;-70
2022/07/23 10:48:42;;;;;;;8.13;6.38;;;;;;;26.89;40.67;99307.75;5074707;28;20028;-71
2022/07/23 10:51:07;;;;;;;11.35;6.43;;;;;;;27.00;40.50;99297.94;5087410;28;20016;-71
2022/07/23 10:53:51;;;;;;;9.73;7.03;;;;;;;27.01;40.06;99294.16;5087069;28;20110;-70
2022/07/23 10:56:37;;;;;;;9.27;6.00;;;;;;;27.09;40.07;99290.25;5087198;28;20034;-71
2022/07/23 10:59:04;;;;;;;8.55;6.22;;;;;;;27.06;39.96;99290.72;5069466;28;20028;-71
2022/07/23 11:01:35;;;;;;;12.88;6.53;;;;;;;27.09;40.39;99287.56;5087128;28;20028;-70
2022/07/23 11:04:00;;;;;;;6.25;5.40;;;;;;;27.06;40.41;99290.72;5087108;28;20020;-71
2022/07/23 11:06:49;;;;;;;7.68;5.88;;;;;;;26.95;40.59;99285.06;5087020;28;20113;-71
2022/07/23 11:09:25;;;;;;;9.68;5.70;;;;;;;26.85;40.64;99278.56;5074899;28;20138;-71
2022/07/23 11:12:13;;;;;;;7.72;6.50;;;;;;;26.91;40.42;99280.34;5086978;28;20035;-70
2022/07/23 11:14:57;;;;;;;7.53;6.45;;;;;;;26.92;40.28;99280.09;5086948;28;20017;-71
2022/07/23 11:17:23;;;;;;;10.38;6.07;;;;;;;26.94;40.32;99269.84;5090297;28;20016;-70
2022/07/23 11:20:07;;;;;;;7.15;5.68;;;;;;;26.92;40.39;99273.84;5090700;28;20021;-70
2022/07/23 11:22:46;;;;;;;9.05;6.30;;;;;;;26.82;40.62;99273.63;5090337;28;20021;-71
2022/07/23 11:25:27;;;;;;;7.47;6.03;;;;;;;26.75;40.74;99279.94;5090587;28;20225;-71
2022/07/23 11:27:53;;;;;;;6.60;5.90;;;;;;;26.68;41.06;99279.25;5090448;28;20081;-69
2022/07/23 11:30:28;;;;;;;6.70;5.22;;;;;;;26.65;40.99;99275.09;5090620;28;20214;-70
2022/07/23 11:33:14;;;;;;;7.35;6.18;;;;;;;26.62;40.96;99270.13;5090473;28;20045;-70
2022/07/23 11:35:49;;;;;;;7.40;6.30;;;;;;;26.59;41.17;99269.75;5089784;28;20036;-70